createdAt,value
2022-09-01T09:11:55.044Z,13.7
2022-09-01T09:27:11.158Z,13.6
2022-09-01T09:42:08.117Z,13.5
2022-09-01T09:57:06.656Z,13.4
2022-09-01T10:12:07.764Z,13.2
2022-09-01T10:27:16.971Z,13.2
2022-09-01T10:42:09.325Z,13.1
2022-09-01T10:57:31.307Z,13.1
2022-09-01T11:12:42.841Z,13.2
2022-09-01T11:27:15.131Z,13.3
2022-09-01T11:42:15.908Z,13.4
2022-09-01T11:57:17.187Z,13.4
2022-09-01T12:12:31.569Z,13.5
2022-09-01T12:42:47.573Z,13.6
2022-09-01T12:57:20.172Z,13.6
2022-09-01T13:12:20.766Z,13.6
2022-09-01T13:27:23.921Z,13.5
2022-09-01T13:42:30.469Z,13.4
2022-09-01T13:57:25.689Z,13.3
2022-09-01T14:12:55.357Z,13.3
2022-09-01T14:27:24.531Z,13.4
2022-09-01T14:42:57.287Z,13.5
2022-09-01T14:57:39.883Z,13.6
2022-09-01T15:03:07.344Z,13.8
2022-09-01T15:18:21.395Z,13.8
2022-09-01T15:33:05.811Z,13.8
2022-09-01T15:48:06.339Z,13.7
2022-09-01T16:03:08.436Z,13.5
2022-09-01T16:18:23.401Z,13.4
2022-09-01T16:33:39.446Z,13.3
2022-09-01T16:48:10.917Z,13.2
2022-09-01T17:03:44.726Z,13.1
2022-09-01T17:18:25.386Z,13
2022-09-01T17:33:24.621Z,13
2022-09-01T17:48:30.250Z,12.9
2022-09-01T18:03:16.455Z,12.8
2022-09-01T18:18:17.081Z,12.8
2022-09-01T18:33:17.455Z,12.8
2022-09-01T18:48:19.246Z,12.7
2022-09-01T19:03:19.405Z,12.7
2022-09-01T19:18:35.203Z,12.7
2022-09-01T19:33:24.918Z,12.7
2022-09-01T19:48:39.769Z,12.6
2022-09-01T20:03:38.230Z,12.6
2022-09-01T20:18:24.965Z,12.6
2022-09-01T20:33:29.621Z,12.6
2022-09-01T20:48:41.930Z,12.6
2022-09-01T21:03:06.149Z,12.5
2022-09-01T21:18:07.286Z,12.5
2022-09-01T21:33:22.663Z,12.5
2022-09-01T22:03:39.417Z,12.5
2022-09-01T22:18:11.391Z,12.5
2022-09-01T22:33:13.337Z,12.5
2022-09-01T22:48:14.282Z,12.5
2022-09-01T23:03:15.152Z,12.5
2022-09-01T23:33:15.904Z,12.5
2022-09-01T23:48:16.286Z,12.5
